Time,TemperatureF,DewpointF,PressureIn,WindDirection,WindDirectionDegrees,WindSpeedMPH,WindSpeedGustMPH,Humidity,HourlyPrecipIn,Conditions,Clouds,dailyrainin,SoftwareType,DateUTC
2013-07-07 00:00:00,84.9,57.9,29.61,NE,51,0.0,9.0,40,0.00,,---,0.00,VWS V14.01,2013-07-07 07:00:00,
2013-07-07 00:01:00,84.9,57.9,29.61,NE,44,4.0,9.0,40,0.00,,---,0.00,VWS V14.01,2013-07-07 07:01:00,
2013-07-07 00:06:00,84.8,57.8,29.61,NE,37,2.0,5.0,40,0.00,,---,0.00,VWS V14.01,2013-07-07 07:06:00,
2013-07-07 00:11:00,84.6,57.6,29.61,North,1,5.0,5.0,40,0.00,,---,0.00,VWS V14.01,2013-07-07 07:11:00,
2013-07-07 00:16:00,84.8,57.8,29.61,NNE,25,3.0,6.0,40,0.00,,---,0.00,VWS V14.01,2013-07-07 07:16:00,
2013-07-07 00:21:00,85.0,57.3,29.60,NNE,23,6.0,6.0,39,0.00,,---,0.00,VWS V14.01,2013-07-07 07:21:00,
2013-07-07 00:27:00,85.2,57.5,29.60,NE,53,1.0,6.0,39,0.00,,---,0.00,VWS V14.01,2013-07-07 07:27:00,
2013-07-07 00:30:00,85.4,56.9,29.60,NNE,18,3.0,6.0,38,0.00,,---,0.00,VWS V14.01,2013-07-07 07:30:00,
2013-07-07 00:32:00,85.4,56.9,29.60,NNE,20,2.0,6.0,38,0.00,,---,0.00,VWS V14.01,2013-07-07 07:32:00,
2013-07-07 00:37:00,85.2,56.8,29.60,North,359,3.0,6.0,38,0.00,,---,0.00,VWS V14.01,2013-07-07 07:37:00,
2013-07-07 00:42:00,84.8,57.1,29.60,NNW,345,1.0,6.0,39,0.00,,---,0.00,VWS V14.01,2013-07-07 07:42:00,
2013-07-07 00:47:00,84.5,57.5,29.60,NNE,19,3.0,6.0,40,0.00,,---,0.00,VWS V14.01,2013-07-07 07:47:00,
2013-07-07 00:52:00,84.5,57.5,29.59,North,6,0.0,6.0,40,0.00,,---,0.00,VWS V14.01,2013-07-07 07:52:00,
2013-07-07 00:57:00,84.6,57.6,29.60,NE,40,3.0,6.0,40,0.00,,---,0.00,VWS V14.01,2013-07-07 07:57:00,
2013-07-07 01:00:00,84.3,57.4,29.59,NNE,24,0.0,6.0,40,0.00,,---,0.00,VWS V14.01,2013-07-07 08:00:00,
2013-07-07 01:02:00,84.3,57.4,29.59,NNE,24,1.0,6.0,40,0.00,,---,0.00,VWS V14.01,2013-07-07 08:02:00,
2013-07-07 01:07:00,84.0,57.1,29.59,NE,56,1.0,2.0,40,0.00,,---,0.00,VWS V14.01,2013-07-07 08:07:00,
2013-07-07 01:12:00,83.9,57.0,29.59,NNE,32,1.0,4.0,40,0.00,,---,0.00,VWS V14.01,2013-07-07 08:12:00,
2013-07-07 01:18:00,84.2,57.3,29.59,NE,37,1.0,5.0,40,0.00,,---,0.00,VWS V14.01,2013-07-07 08:18:00,
2013-07-07 01:23:00,84.5,57.5,29.58,NNW,347,0.0,5.0,40,0.00,,---,0.00,VWS V14.01,2013-07-07 08:23:00,
2013-07-07 01:28:00,84.8,57.8,29.58,WNW,302,0.0,5.0,40,0.00,,---,0.00,VWS V14.01,2013-07-07 08:28:00,
2013-07-07 01:30:00,85.1,57.4,29.58,WNW,300,0.0,5.0,39,0.00,,---,0.00,VWS V14.01,2013-07-07 08:30:00,
2013-07-07 01:33:00,85.1,57.4,29.58,SSW,211,0.0,0.0,39,0.00,,---,0.00,VWS V14.01,2013-07-07 08:33:00,
2013-07-07 01:38:00,84.7,57.0,29.58,SSW,203,4.0,6.0,39,0.00,,---,0.00,VWS V14.01,2013-07-07 08:38:00,
2013-07-07 01:43:00,84.2,57.3,29.58,SW,217,1.0,6.0,40,0.00,,---,0.00,VWS V14.01,2013-07-07 08:43:00,
2013-07-07 01:48:00,83.9,57.7,29.59,SSE,164,2.0,6.0,41,0.00,,---,0.00,VWS V14.01,2013-07-07 08:48:00,
2013-07-07 01:53:00,83.8,58.3,29.58,WSW,238,3.0,6.0,42,0.00,,---,0.00,VWS V14.01,2013-07-07 08:53:00,
2013-07-07 01:59:00,83.7,60.1,29.58,WSW,240,2.0,7.0,45,0.00,,---,0.00,VWS V14.01,2013-07-07 08:59:00,
2013-07-07 02:00:00,83.4,60.5,29.58,SSW,211,2.0,7.0,46,0.00,,---,0.00,VWS V14.01,2013-07-07 09:00:00,
2013-07-07 02:04:00,83.4,61.1,29.58,WSW,249,5.0,6.0,47,0.00,,---,0.00,VWS V14.01,2013-07-07 09:04:00,
2013-07-07 02:09:00,83.0,61.3,29.58,SW,232,4.0,6.0,48,0.00,,---,0.00,VWS V14.01,2013-07-07 09:09:00,
2013-07-07 02:14:00,82.8,61.1,29.58,WSW,243,3.0,6.0,48,0.00,,---,0.00,VWS V14.01,2013-07-07 09:14:00,
2013-07-07 02:19:00,82.6,61.5,29.58,WSW,245,5.0,6.0,49,0.00,,---,0.00,VWS V14.01,2013-07-07 09:19:00,
2013-07-07 02:24:00,82.4,61.3,29.58,WSW,248,4.0,6.0,49,0.00,,---,0.00,VWS V14.01,2013-07-07 09:24:00,
2013-07-07 02:29:00,82.3,61.2,29.58,SW,228,3.0,6.0,49,0.00,,---,0.00,VWS V14.01,2013-07-07 09:29:00,
2013-07-07 02:30:00,82.3,60.7,29.58,WSW,250,2.0,6.0,48,0.00,,---,0.00,VWS V14.01,2013-07-07 09:30:00,
2013-07-07 02:34:00,82.3,60.7,29.58,West,262,4.0,5.0,48,0.00,,---,0.00,VWS V14.01,2013-07-07 09:34:00,
2013-07-07 02:40:00,82.2,60.6,29.58,South,191,2.0,5.0,48,0.00,,---,0.00,VWS V14.01,2013-07-07 09:40:00,
2013-07-07 02:45:00,82.1,60.5,29.58,WSW,255,1.0,5.0,48,0.00,,---,0.00,VWS V14.01,2013-07-07 09:45:00,
2013-07-07 02:50:00,81.9,60.9,29.58,SW,234,1.0,5.0,49,0.00,,---,0.00,VWS V14.01,2013-07-07 09:50:00,
2013-07-07 02:55:00,81.9,60.9,29.58,SW,225,0.0,5.0,49,0.00,,---,0.00,VWS V14.01,2013-07-07 09:55:00,
2013-07-07 03:00:00,81.6,60.6,29.58,SW,225,0.0,5.0,49,0.00,,---,0.00,VWS V14.01,2013-07-07 10:00:00,
2013-07-07 03:05:00,81.2,60.8,29.58,SW,226,0.0,0.0,50,0.00,,---,0.00,VWS V14.01,2013-07-07 10:05:00,
2013-07-07 03:10:00,81.0,60.6,29.58,SW,226,0.0,0.0,50,0.00,,---,0.00,VWS V14.01,2013-07-07 10:10:00,
2013-07-07 03:15:00,80.7,60.9,29.58,SW,226,0.0,0.0,51,0.00,,---,0.00,VWS V14.01,2013-07-07 10:15:00,
2013-07-07 03:20:00,80.5,60.7,29.58,West,260,0.0,0.0,51,0.00,,---,0.00,VWS V14.01,2013-07-07 10:20:00,
2013-07-07 03:26:00,80.5,60.7,29.58,West,270,0.0,2.0,51,0.00,,---,0.00,VWS V14.01,2013-07-07 10:26:00,
2013-07-07 03:30:00,80.2,60.5,29.58,West,267,0.0,2.0,51,0.00,,---,0.00,VWS V14.01,2013-07-07 10:30:00,
2013-07-07 03:31:00,80.3,60.5,29.58,West,262,1.0,2.0,51,0.00,,---,0.00,VWS V14.01,2013-07-07 10:31:00,
2013-07-07 03:36:00,80.1,60.4,29.58,West,267,0.0,0.0,51,0.00,,---,0.00,VWS V14.01,2013-07-07 10:36:00,
2013-07-07 03:41:00,80.0,60.3,29.58,West,267,0.0,0.0,51,0.00,,---,0.00,VWS V14.01,2013-07-07 10:41:00,
2013-07-07 03:46:00,79.8,60.6,29.58,West,267,0.0,0.0,52,0.00,,---,0.00,VWS V14.01,2013-07-07 10:46:00,
2013-07-07 03:51:00,79.6,60.4,29.58,West,278,0.0,0.0,52,0.00,,---,0.00,VWS V14.01,2013-07-07 10:51:00,
2013-07-07 03:56:00,79.4,60.3,29.58,WNW,302,0.0,0.0,52,0.00,,---,0.00,VWS V14.01,2013-07-07 10:56:00,
2013-07-07 04:00:00,79.3,60.2,29.58,North,350,0.0,0.0,52,0.00,,---,0.00,VWS V14.01,2013-07-07 11:00:00,
2013-07-07 04:02:00,79.3,60.2,29.58,North,351,0.0,0.0,52,0.00,,---,0.00,VWS V14.01,2013-07-07 11:02:00,
2013-07-07 04:07:00,79.2,60.1,29.58,North,349,0.0,0.0,52,0.00,,---,0.00,VWS V14.01,2013-07-07 11:07:00,
2013-07-07 04:12:00,79.1,60.5,29.58,North,349,0.0,0.0,53,0.00,,---,0.00,VWS V14.01,2013-07-07 11:12:00,
2013-07-07 04:17:00,78.9,60.3,29.58,North,6,1.0,1.0,53,0.00,,---,0.00,VWS V14.01,2013-07-07 11:17:00,
2013-07-07 04:22:00,79.2,60.6,29.58,NNE,27,0.0,2.0,53,0.00,,---,0.00,VWS V14.01,2013-07-07 11:22:00,
2013-07-07 04:27:00,79.4,60.3,29.58,NNE,27,0.0,2.0,52,0.00,,---,0.00,VWS V14.01,2013-07-07 11:27:00,
2013-07-07 04:30:00,79.4,60.3,29.58,NE,56,0.0,2.0,52,0.00,,---,0.00,VWS V14.01,2013-07-07 11:30:00,
2013-07-07 04:32:00,79.4,60.3,29.58,ENE,57,0.0,2.0,52,0.00,,---,0.00,VWS V14.01,2013-07-07 11:32:00,
2013-07-07 04:37:00,79.1,60.0,29.58,NE,37,3.0,3.0,52,0.00,,---,0.00,VWS V14.01,2013-07-07 11:37:00,
2013-07-07 04:43:00,78.9,59.2,29.58,NNE,30,2.0,3.0,51,0.00,,---,0.00,VWS V14.01,2013-07-07 11:43:00,
2013-07-07 04:48:00,79.2,57.8,29.58,NNE,22,2.0,4.0,48,0.00,,---,0.00,VWS V14.01,2013-07-07 11:48:00,
2013-07-07 04:53:00,79.5,58.1,29.59,NE,46,1.0,4.0,48,0.00,,---,0.00,VWS V14.01,2013-07-07 11:53:00,
2013-07-07 04:56:00,79.5,58.1,29.59,NE,41,0.0,4.0,48,0.00,,---,0.00,VWS V14.01,2013-07-07 11:56:00,
2013-07-07 05:00:00,79.5,58.1,29.59,NE,37,0.0,4.0,48,0.00,,---,0.00,VWS V14.01,2013-07-07 12:00:00,
2013-07-07 05:01:00,79.5,58.1,29.59,NE,37,0.0,4.0,48,0.00,,---,0.00,VWS V14.01,2013-07-07 12:01:00,
2013-07-07 05:06:00,79.4,58.0,29.59,NE,46,0.0,0.0,48,0.00,,---,0.00,VWS V14.01,2013-07-07 12:06:00,
2013-07-07 05:11:00,79.2,57.8,29.59,NE,46,0.0,0.0,48,0.00,,---,0.00,VWS V14.01,2013-07-07 12:11:00,
2013-07-07 05:16:00,78.8,58.6,29.59,SSE,167,1.0,1.0,50,0.00,,---,0.00,VWS V14.01,2013-07-07 12:16:00,
2013-07-07 05:21:00,78.1,58.5,29.60,SSE,167,0.0,1.0,51,0.00,,---,0.00,VWS V14.01,2013-07-07 12:21:00,
2013-07-07 05:26:00,77.5,58.5,29.60,SSE,166,0.0,1.0,52,0.00,,---,0.00,VWS V14.01,2013-07-07 12:26:00,
2013-07-07 05:30:00,77.5,58.5,29.60,NNE,13,1.0,3.0,52,0.00,,---,0.00,VWS V14.01,2013-07-07 12:30:00,
2013-07-07 05:31:00,77.4,58.4,29.60,North,8,2.0,3.0,52,0.00,,---,0.00,VWS V14.01,2013-07-07 12:31:00,
2013-07-07 05:36:00,77.7,58.7,29.60,North,6,2.0,2.0,52,0.00,,---,0.00,VWS V14.01,2013-07-07 12:36:00,
2013-07-07 05:41:00,78.2,58.6,29.60,NNE,20,2.0,4.0,51,0.00,,---,0.00,VWS V14.01,2013-07-07 12:41:00,
2013-07-07 05:46:00,78.5,58.3,29.60,NNE,30,2.0,4.0,50,0.00,,---,0.00,VWS V14.01,2013-07-07 12:46:00,
2013-07-07 05:51:00,78.5,58.3,29.61,NNE,24,2.0,4.0,50,0.00,,---,0.00,VWS V14.01,2013-07-07 12:51:00,
2013-07-07 05:56:00,78.5,57.8,29.61,North,8,1.0,4.0,49,0.00,,---,0.00,VWS V14.01,2013-07-07 12:56:00,
2013-07-07 06:00:00,78.7,58.5,29.61,NNE,30,2.0,4.0,50,0.00,,---,0.00,VWS V14.01,2013-07-07 13:00:00,
2013-07-07 06:02:00,78.7,58.0,29.61,NNE,32,2.0,4.0,49,0.00,,---,0.00,VWS V14.01,2013-07-07 13:02:00,
2013-07-07 06:07:00,78.9,58.7,29.61,NNE,30,0.0,3.0,50,0.00,,---,0.00,VWS V14.01,2013-07-07 13:07:00,
2013-07-07 06:12:00,79.3,58.5,29.61,NE,46,1.0,3.0,49,0.00,,---,0.00,VWS V14.01,2013-07-07 13:12:00,
2013-07-07 06:17:00,79.8,58.4,29.62,NNE,33,1.0,3.0,48,0.00,,---,0.00,VWS V14.01,2013-07-07 13:17:00,
2013-07-07 06:22:00,80.1,58.1,29.62,ENE,58,0.0,3.0,47,0.00,,---,0.00,VWS V14.01,2013-07-07 13:22:00,
2013-07-07 06:27:00,80.5,57.8,29.62,NE,47,2.0,3.0,46,0.00,,---,0.00,VWS V14.01,2013-07-07 13:27:00,
2013-07-07 06:30:00,80.6,57.9,29.62,NE,44,2.0,3.0,46,0.00,,---,0.00,VWS V14.01,2013-07-07 13:30:00,
2013-07-07 06:32:00,80.6,57.9,29.62,NE,44,1.0,3.0,46,0.00,,---,0.00,VWS V14.01,2013-07-07 13:32:00,
2013-07-07 06:37:00,80.3,58.2,29.62,NNE,23,0.0,2.0,47,0.00,,---,0.00,VWS V14.01,2013-07-07 13:37:00,
2013-07-07 06:42:00,80.1,58.1,29.63,NNE,23,0.0,2.0,47,0.00,,---,0.00,VWS V14.01,2013-07-07 13:42:00,
2013-07-07 06:47:00,79.8,58.4,29.63,NNE,22,0.0,2.0,48,0.00,,---,0.00,VWS V14.01,2013-07-07 13:47:00,
2013-07-07 06:52:00,79.9,58.5,29.63,NNE,19,0.0,2.0,48,0.00,,---,0.00,VWS V14.01,2013-07-07 13:52:00,
2013-07-07 06:57:00,80.1,58.7,29.63,NNE,14,0.0,2.0,48,0.00,,---,0.00,VWS V14.01,2013-07-07 13:57:00,
2013-07-07 07:00:00,81.2,59.1,29.63,NNE,15,0.0,2.0,47,0.00,,---,0.00,VWS V14.01,2013-07-07 14:00:00,
2013-07-07 07:02:00,81.2,59.1,29.63,NNE,14,0.0,2.0,47,0.00,,---,0.00,VWS V14.01,2013-07-07 14:02:00,
2013-07-07 07:07:00,82.6,59.8,29.63,NNE,15,0.0,0.0,46,0.00,,---,0.00,VWS V14.01,2013-07-07 14:07:00,
2013-07-07 07:12:00,84.3,59.4,29.63,NNE,22,0.0,0.0,43,0.00,,---,0.00,VWS V14.01,2013-07-07 14:12:00,
2013-07-07 07:18:00,85.7,60.0,29.63,NE,50,0.0,2.0,42,0.00,,---,0.00,VWS V14.01,2013-07-07 14:18:00,
2013-07-07 07:23:00,85.9,59.5,29.64,East,85,0.0,2.0,41,0.00,,---,0.00,VWS V14.01,2013-07-07 14:23:00,
2013-07-07 07:28:00,86.0,58.9,29.64,East,84,0.0,2.0,40,0.00,,---,0.00,VWS V14.01,2013-07-07 14:28:00,
2013-07-07 07:30:00,86.2,59.1,29.64,ESE,118,0.0,2.0,40,0.00,,---,0.00,VWS V14.01,2013-07-07 14:30:00,
2013-07-07 07:33:00,86.2,59.1,29.64,ESE,118,0.0,0.0,40,0.00,,---,0.00,VWS V14.01,2013-07-07 14:33:00,
2013-07-07 07:38:00,86.6,59.4,29.65,South,176,1.0,3.0,40,0.00,,---,0.00,VWS V14.01,2013-07-07 14:38:00,
2013-07-07 07:43:00,87.0,59.8,29.65,SSE,166,0.0,3.0,40,0.00,,---,0.00,VWS V14.01,2013-07-07 14:43:00,
2013-07-07 07:48:00,87.7,59.7,29.65,SE,141,1.0,3.0,39,0.00,,---,0.00,VWS V14.01,2013-07-07 14:48:00,
2013-07-07 07:53:00,87.9,59.9,29.65,SSE,152,0.0,3.0,39,0.00,,---,0.00,VWS V14.01,2013-07-07 14:53:00,
2013-07-07 07:58:00,87.4,59.4,29.65,SSW,200,0.0,3.0,39,0.00,,---,0.00,VWS V14.01,2013-07-07 14:58:00,
2013-07-07 08:00:00,86.9,59.7,29.65,WSW,250,2.0,3.0,40,0.00,,---,0.00,VWS V14.01,2013-07-07 15:00:00,
2013-07-07 08:03:00,86.9,59.7,29.65,SW,222,2.0,3.0,40,0.00,,---,0.00,VWS V14.01,2013-07-07 15:03:00,
2013-07-07 08:08:00,86.9,60.4,29.64,SSE,167,0.0,4.0,41,0.00,,---,0.00,VWS V14.01,2013-07-07 15:08:00,
2013-07-07 08:13:00,87.1,60.6,29.65,WSW,248,0.0,4.0,41,0.00,,---,0.00,VWS V14.01,2013-07-07 15:13:00,
2013-07-07 08:18:00,87.8,60.5,29.65,SW,232,0.0,4.0,40,0.00,,---,0.00,VWS V14.01,2013-07-07 15:18:00,
2013-07-07 08:23:00,88.3,60.9,29.65,WSW,238,0.0,4.0,40,0.00,,---,0.00,VWS V14.01,2013-07-07 15:23:00,
2013-07-07 08:28:00,89.7,61.5,29.64,SSW,212,0.0,4.0,39,0.00,,---,0.00,VWS V14.01,2013-07-07 15:28:00,
2013-07-07 08:30:00,90.8,61.0,29.64,SW,214,0.0,4.0,37,0.00,,---,0.00,VWS V14.01,2013-07-07 15:30:00,
2013-07-07 08:34:00,91.0,61.1,29.64,SW,214,0.0,0.0,37,0.00,,---,0.00,VWS V14.01,2013-07-07 15:34:00,
2013-07-07 08:39:00,92.1,59.7,29.64,ESE,104,0.0,0.0,34,0.00,,---,0.00,VWS V14.01,2013-07-07 15:39:00,
2013-07-07 08:44:00,92.7,61.1,29.64,NE,54,0.0,2.0,35,0.00,,---,0.00,VWS V14.01,2013-07-07 15:44:00,
2013-07-07 08:49:00,94.7,61.2,29.64,North,350,1.0,2.0,33,0.00,,---,0.00,VWS V14.01,2013-07-07 15:49:00,
2013-07-07 08:54:00,96.3,60.8,29.64,NNE,18,0.0,2.0,31,0.00,,---,0.00,VWS V14.01,2013-07-07 15:54:00,
2013-07-07 08:59:00,96.7,59.2,29.64,SSW,198,0.0,2.0,29,0.00,,---,0.00,VWS V14.01,2013-07-07 15:59:00,
2013-07-07 09:00:00,96.9,59.4,29.64,SSW,207,2.0,2.0,29,0.00,,---,0.00,VWS V14.01,2013-07-07 16:00:00,
2013-07-07 09:04:00,96.9,59.4,29.64,SSW,210,1.0,2.0,29,0.00,,---,0.00,VWS V14.01,2013-07-07 16:04:00,
2013-07-07 09:09:00,96.3,58.9,29.64,SW,236,3.0,3.0,29,0.00,,---,0.00,VWS V14.01,2013-07-07 16:09:00,
2013-07-07 09:14:00,95.8,59.4,29.64,SW,230,3.0,4.0,30,0.00,,---,0.00,VWS V14.01,2013-07-07 16:14:00,
2013-07-07 09:19:00,95.6,58.3,29.64,SW,235,0.0,4.0,29,0.00,,---,0.00,VWS V14.01,2013-07-07 16:19:00,
2013-07-07 09:24:00,95.6,58.3,29.64,SSW,200,1.0,4.0,29,0.00,,---,0.00,VWS V14.01,2013-07-07 16:24:00,
2013-07-07 09:29:00,95.4,59.1,29.64,NW,307,1.0,4.0,30,0.00,,---,0.00,VWS V14.01,2013-07-07 16:29:00,
2013-07-07 09:30:00,95.4,58.1,29.64,NNE,30,2.0,5.0,29,0.00,,---,0.00,VWS V15.00,2013-07-07 16:30:00,
2013-07-07 09:34:00,95.6,58.3,29.64,North,11,0.0,4.0,29,0.00,,---,0.00,VWS V14.01,2013-07-07 16:34:00,
2013-07-07 09:39:00,96.4,59.0,29.64,NNE,29,0.0,4.0,29,0.00,,---,0.00,VWS V14.01,2013-07-07 16:39:00,
2013-07-07 09:45:00,97.5,57.9,29.64,NE,49,0.0,4.0,27,0.00,,---,0.00,VWS V14.01,2013-07-07 16:45:00,
2013-07-07 09:50:00,98.0,58.3,29.64,WSW,246,0.0,4.0,27,0.00,,---,0.00,VWS V14.01,2013-07-07 16:50:00,
2013-07-07 09:55:00,98.6,57.8,29.64,North,358,1.0,4.0,26,0.00,,---,0.00,VWS V14.01,2013-07-07 16:55:00,
2013-07-07 10:00:00,98.7,56.8,29.63,South,170,1.0,4.0,25,0.00,,---,0.00,VWS V14.01,2013-07-07 17:00:00,
2013-07-07 10:05:00,98.7,57.9,29.63,WSW,256,0.0,0.0,26,0.00,,---,0.00,VWS V14.01,2013-07-07 17:05:00,
2013-07-07 10:10:00,99.6,55.3,29.63,NE,39,2.0,3.0,23,0.00,,---,0.00,VWS V14.01,2013-07-07 17:10:00,
2013-07-07 10:15:00,99.4,55.1,29.63,SE,127,0.0,3.0,23,0.00,,---,0.00,VWS V14.01,2013-07-07 17:15:00,
2013-07-07 10:20:00,100.8,56.2,29.63,WNW,293,0.0,3.0,23,0.00,,---,0.00,VWS V14.01,2013-07-07 17:20:00,
2013-07-07 10:25:00,100.7,58.5,29.63,East,83,3.0,3.0,25,0.00,,---,0.00,VWS V14.01,2013-07-07 17:25:00,
2013-07-07 10:30:00,100.1,54.5,29.63,SW,222,3.0,5.0,22,0.00,,---,0.00,VWS V14.01,2013-07-07 17:30:00,
2013-07-07 10:35:00,100.0,55.6,29.63,SW,226,0.0,1.0,23,0.00,,---,0.00,VWS V14.01,2013-07-07 17:35:00,
2013-07-07 10:40:00,100.7,55.0,29.62,West,266,1.0,6.0,22,0.00,,---,0.00,VWS V14.01,2013-07-07 17:40:00,
2013-07-07 10:45:00,100.1,55.7,29.62,SW,232,1.0,6.0,23,0.00,,---,0.00,VWS V14.01,2013-07-07 17:45:00,
2013-07-07 10:50:00,99.8,55.4,29.63,West,260,3.0,6.0,23,0.00,,---,0.00,VWS V14.01,2013-07-07 17:50:00,
2013-07-07 10:55:00,100.4,54.7,29.63,North,7,0.0,6.0,22,0.00,,---,0.00,VWS V14.01,2013-07-07 17:55:00,
2013-07-07 11:00:00,101.2,54.1,29.63,WNW,293,1.0,6.0,21,0.00,,---,0.00,VWS V14.01,2013-07-07 18:00:00,
2013-07-07 11:06:00,101.6,54.4,29.63,SSE,149,0.0,0.0,21,0.00,,---,0.00,VWS V14.01,2013-07-07 18:06:00,
2013-07-07 11:11:00,100.7,56.2,29.62,West,276,4.0,9.0,23,0.00,,---,0.00,VWS V14.01,2013-07-07 18:11:00,
2013-07-07 11:16:00,99.9,56.7,29.62,WSW,243,3.0,9.0,24,0.00,,---,0.00,VWS V14.01,2013-07-07 18:16:00,
2013-07-07 11:21:00,99.9,57.8,29.62,SW,219,5.0,9.0,25,0.00,,---,0.00,VWS V14.01,2013-07-07 18:21:00,
2013-07-07 11:26:00,100.4,58.2,29.62,ESE,114,3.0,9.0,25,0.00,,---,0.00,VWS V14.01,2013-07-07 18:26:00,
2013-07-07 11:30:00,101.0,57.6,29.62,SW,235,2.0,9.0,24,0.00,,---,0.00,VWS V14.01,2013-07-07 18:30:00,
2013-07-07 11:31:00,100.9,57.5,29.62,South,183,5.0,9.0,24,0.00,,---,0.00,VWS V14.01,2013-07-07 18:31:00,
2013-07-07 11:36:00,101.3,57.8,29.62,SSE,165,5.0,8.0,24,0.00,,---,0.00,VWS V14.01,2013-07-07 18:36:00,
2013-07-07 11:41:00,101.9,57.2,29.62,SW,233,8.0,8.0,23,0.00,,---,0.00,VWS V14.01,2013-07-07 18:41:00,
2013-07-07 11:46:00,101.6,56.9,29.61,West,260,3.0,11.0,23,0.00,,---,0.00,VWS V14.01,2013-07-07 18:46:00,
2013-07-07 11:51:00,101.9,57.2,29.61,SW,226,2.0,11.0,23,0.00,,---,0.00,VWS V14.01,2013-07-07 18:51:00,
2013-07-07 11:56:00,102.0,57.2,29.61,WNW,287,3.0,11.0,23,0.00,,---,0.00,VWS V14.01,2013-07-07 18:56:00,
2013-07-07 12:00:00,102.7,56.6,29.61,South,173,5.0,11.0,22,0.00,,---,0.00,VWS V14.01,2013-07-07 19:00:00,
2013-07-07 12:02:00,102.6,56.5,29.61,SW,235,3.0,11.0,22,0.00,,---,0.00,VWS V14.01,2013-07-07 19:02:00,
2013-07-07 12:07:00,102.7,56.6,29.61,South,174,0.0,7.0,22,0.00,,---,0.00,VWS V14.01,2013-07-07 19:07:00,
2013-07-07 12:12:00,103.1,55.6,29.60,WNW,297,4.0,8.0,21,0.00,,---,0.00,VWS V14.01,2013-07-07 19:12:00,
2013-07-07 12:17:00,103.2,55.7,29.60,WSW,250,4.0,8.0,21,0.00,,---,0.00,VWS V14.01,2013-07-07 19:17:00,
2013-07-07 12:22:00,103.0,55.6,29.60,WNW,293,4.0,9.0,21,0.00,,---,0.00,VWS V14.01,2013-07-07 19:22:00,
2013-07-07 12:27:00,103.3,55.8,29.60,West,272,2.0,9.0,21,0.00,,---,0.00,VWS V14.01,2013-07-07 19:27:00,
2013-07-07 12:30:00,103.5,56.0,29.59,SE,127,1.0,9.0,21,0.00,,---,0.00,VWS V14.01,2013-07-07 19:30:00,
2013-07-07 12:32:00,103.4,54.5,29.59,WSW,246,0.0,9.0,20,0.00,,---,0.00,VWS V14.01,2013-07-07 19:32:00,
2013-07-07 12:37:00,104.5,55.5,29.59,North,3,0.0,2.0,20,0.00,,---,0.00,VWS V14.01,2013-07-07 19:37:00,
2013-07-07 12:42:00,104.4,55.4,29.59,West,259,4.0,10.0,20,0.00,,---,0.00,VWS V14.01,2013-07-07 19:42:00,
2013-07-07 12:47:00,104.4,56.7,29.58,NW,322,3.0,10.0,21,0.00,,---,0.00,VWS V14.01,2013-07-07 19:47:00,
2013-07-07 12:52:00,105.0,57.2,29.58,WSW,252,1.0,10.0,21,0.00,,---,0.00,VWS V14.01,2013-07-07 19:52:00,
2013-07-07 12:57:00,104.5,56.8,29.58,WNW,287,2.0,10.0,21,0.00,,---,0.00,VWS V14.01,2013-07-07 19:57:00,
2013-07-07 13:00:00,104.4,55.4,29.58,SW,233,3.0,10.0,20,0.00,,---,0.00,VWS V14.01,2013-07-07 20:00:00,
2013-07-07 13:02:00,104.5,55.5,29.58,WSW,252,4.0,10.0,20,0.00,,---,0.00,VWS V14.01,2013-07-07 20:02:00,
2013-07-07 13:07:00,104.5,55.5,29.58,SW,231,0.0,6.0,20,0.00,,---,0.00,VWS V14.01,2013-07-07 20:07:00,
2013-07-07 13:12:00,104.8,54.3,29.57,WNW,287,1.0,6.0,19,0.00,,---,0.00,VWS V14.01,2013-07-07 20:12:00,
2013-07-07 13:17:00,104.6,54.1,29.57,SW,233,2.0,8.0,19,0.00,,---,0.00,VWS V14.01,2013-07-07 20:17:00,
2013-07-07 13:22:00,104.2,56.5,29.57,ENE,77,2.0,8.0,21,0.00,,---,0.00,VWS V14.01,2013-07-07 20:22:00,
2013-07-07 13:27:00,104.7,57.0,29.56,SW,218,6.0,15.0,21,0.00,,---,0.00,VWS V14.01,2013-07-07 20:27:00,
2013-07-07 13:30:00,104.7,57.0,29.56,SSW,212,4.0,15.0,21,0.00,,---,0.00,VWS V14.01,2013-07-07 20:30:00,
2013-07-07 13:32:00,104.7,57.0,29.56,WSW,252,3.0,15.0,21,0.00,,---,0.00,VWS V14.01,2013-07-07 20:32:00,
2013-07-07 13:38:00,104.7,55.6,29.56,West,262,5.0,15.0,20,0.00,,---,0.00,VWS V14.01,2013-07-07 20:38:00,
2013-07-07 13:44:00,104.9,54.4,29.56,SW,235,4.0,15.0,19,0.00,,---,0.00,VWS V14.01,2013-07-07 20:44:00,
2013-07-07 13:49:00,105.0,55.8,29.56,WSW,245,9.0,15.0,20,0.00,,---,0.00,VWS V14.01,2013-07-07 20:49:00,
2013-07-07 13:54:00,105.3,56.1,29.56,NW,307,4.0,15.0,20,0.00,,---,0.00,VWS V14.01,2013-07-07 20:54:00,
2013-07-07 13:59:00,106.4,55.6,29.55,WSW,256,2.0,15.0,19,0.00,,---,0.00,VWS V14.01,2013-07-07 20:59:00,
2013-07-07 14:00:00,106.2,55.4,29.55,SW,234,6.0,15.0,19,0.00,,---,0.00,VWS V14.01,2013-07-07 21:00:00,
2013-07-07 14:04:00,106.2,55.4,29.55,WSW,245,3.0,7.0,19,0.00,,---,0.00,VWS V14.01,2013-07-07 21:04:00,
2013-07-07 14:09:00,105.7,55.0,29.55,West,276,10.0,11.0,19,0.00,,---,0.00,VWS V14.01,2013-07-07 21:09:00,
2013-07-07 14:14:00,105.3,54.7,29.54,West,267,1.0,11.0,19,0.00,,---,0.00,VWS V14.01,2013-07-07 21:14:00,
2013-07-07 14:19:00,105.6,54.9,29.54,SW,236,9.0,14.0,19,0.00,,---,0.00,VWS V14.01,2013-07-07 21:19:00,
2013-07-07 14:24:00,104.8,54.3,29.54,WSW,245,6.0,14.0,19,0.00,,---,0.00,VWS V14.01,2013-07-07 21:24:00,
2013-07-07 14:29:00,104.0,53.6,29.54,WSW,245,10.0,14.0,19,0.00,,---,0.00,VWS V14.01,2013-07-07 21:29:00,
2013-07-07 14:30:00,103.8,54.9,29.53,SW,233,6.0,14.0,20,0.00,,---,0.00,VWS V14.01,2013-07-07 21:30:00,
2013-07-07 14:34:00,104.2,53.8,29.53,SW,231,7.0,11.0,19,0.00,,---,0.00,VWS V14.01,2013-07-07 21:34:00,
2013-07-07 14:39:00,104.3,53.9,29.53,WNW,287,9.0,12.0,19,0.00,,---,0.00,VWS V14.01,2013-07-07 21:39:00,
2013-07-07 14:44:00,104.8,54.3,29.52,West,263,9.0,15.0,19,0.00,,---,0.00,VWS V14.01,2013-07-07 21:44:00,
2013-07-07 14:50:00,104.9,54.4,29.52,WSW,257,6.0,15.0,19,0.00,,---,0.00,VWS V14.01,2013-07-07 21:50:00,
2013-07-07 14:55:00,106.1,53.8,29.53,NW,318,4.0,15.0,18,0.00,,---,0.00,VWS V14.01,2013-07-07 21:55:00,
2013-07-07 15:00:00,105.8,53.6,29.52,WSW,239,6.0,15.0,18,0.00,,---,0.00,VWS V14.01,2013-07-07 22:00:00,
2013-07-07 15:05:00,106.0,53.8,29.52,SW,235,7.0,20.0,18,0.00,,---,0.00,VWS V14.01,2013-07-07 22:05:00,
2013-07-07 15:11:00,106.1,53.8,29.53,SW,222,13.0,20.0,18,0.00,,---,0.00,VWS V14.01,2013-07-07 22:11:00,
2013-07-07 15:16:00,105.8,53.6,29.53,WSW,248,11.0,20.0,18,0.00,,---,0.00,VWS V14.01,2013-07-07 22:16:00,
2013-07-07 15:21:00,105.2,54.6,29.53,WSW,245,11.0,20.0,19,0.00,,---,0.00,VWS V14.01,2013-07-07 22:21:00,
2013-07-07 15:26:00,104.8,54.3,29.53,WSW,255,9.0,20.0,19,0.00,,---,0.00,VWS V14.01,2013-07-07 22:26:00,
2013-07-07 15:30:00,104.0,53.6,29.53,West,276,2.0,20.0,19,0.00,,---,0.00,VWS V14.01,2013-07-07 22:30:00,
2013-07-07 15:31:00,104.2,53.8,29.53,West,269,12.0,20.0,19,0.00,,---,0.00,VWS V14.01,2013-07-07 22:31:00,
2013-07-07 15:36:00,103.5,54.6,29.53,WSW,246,4.0,15.0,20,0.00,,---,0.00,VWS V14.01,2013-07-07 22:36:00,
2013-07-07 15:41:00,102.7,54.0,29.54,West,262,6.0,15.0,20,0.00,,---,0.00,VWS V14.01,2013-07-07 22:41:00,
2013-07-07 15:46:00,101.8,53.2,29.54,SSW,212,6.0,15.0,20,0.00,,---,0.00,VWS V14.01,2013-07-07 22:46:00,
2013-07-07 15:51:00,101.5,53.0,29.54,West,259,11.0,15.0,20,0.00,,---,0.00,VWS V14.01,2013-07-07 22:51:00,
2013-07-07 15:56:00,101.0,53.9,29.54,SW,236,5.0,16.0,21,0.00,,---,0.00,VWS V14.01,2013-07-07 22:56:00,
2013-07-07 16:00:00,100.7,53.7,29.55,SW,232,4.0,16.0,21,0.00,,---,0.00,VWS V14.01,2013-07-07 23:00:00,
2013-07-07 16:01:00,100.8,53.8,29.55,WSW,239,4.0,16.0,21,0.00,,---,0.00,VWS V14.01,2013-07-07 23:01:00,
2013-07-07 16:06:00,100.6,53.6,29.55,WNW,291,2.0,8.0,21,0.00,,---,0.00,VWS V14.01,2013-07-07 23:06:00,
2013-07-07 16:11:00,98.5,54.3,29.55,NNE,18,4.0,13.0,23,0.00,,---,0.00,VWS V14.01,2013-07-07 23:11:00,
2013-07-07 16:16:00,96.1,57.8,29.56,NNE,15,16.0,17.0,28,0.00,,---,0.00,VWS V14.01,2013-07-07 23:16:00,
2013-07-07 16:21:00,93.1,55.2,29.56,ENE,77,11.0,25.0,28,0.00,,---,0.00,VWS V14.01,2013-07-07 23:21:00,
2013-07-07 16:26:00,90.1,56.3,29.58,East,88,2.0,25.0,32,0.00,,---,0.00,VWS V14.01,2013-07-07 23:26:00,
2013-07-07 16:30:00,90.0,56.2,29.61,ESE,102,4.0,25.0,32,0.00,,---,0.00,VWS V14.01,2013-07-07 23:30:00,
2013-07-07 16:32:00,89.8,56.9,29.59,NE,39,2.0,25.0,33,0.00,,---,0.00,VWS V14.01,2013-07-07 23:32:00,
2013-07-07 16:37:00,90.1,58.8,29.62,ESE,111,5.0,13.0,35,0.00,,---,0.00,VWS V14.01,2013-07-07 23:37:00,
2013-07-07 16:42:00,86.7,59.5,29.61,SSE,166,11.0,21.0,40,0.00,,---,0.00,VWS V14.01,2013-07-07 23:42:00,
2013-07-07 16:47:00,80.4,61.7,29.60,West,273,7.0,21.0,53,0.12,,---,0.12,VWS V14.01,2013-07-07 23:47:00,
2013-07-07 16:52:00,78.4,65.2,29.59,West,281,13.0,21.0,64,0.25,,---,0.25,VWS V14.01,2013-07-07 23:52:00,
2013-07-07 16:57:00,74.1,66.4,29.58,NNE,22,8.0,21.0,77,0.28,,---,0.28,VWS V14.01,2013-07-07 23:57:00,
2013-07-07 17:00:00,73.7,65.7,29.58,West,268,8.0,21.0,76,0.29,,---,0.29,VWS V14.01,2013-07-08 00:00:00,
2013-07-07 17:02:00,73.6,65.6,29.58,West,260,6.0,21.0,76,0.29,,---,0.29,VWS V14.01,2013-07-08 00:02:00,
2013-07-07 17:07:00,74.2,67.3,29.58,NE,37,2.0,14.0,79,0.29,,---,0.29,VWS V14.01,2013-07-08 00:07:00,
2013-07-07 17:12:00,74.2,67.6,29.60,SE,129,1.0,14.0,80,0.29,,---,0.29,VWS V14.01,2013-07-08 00:12:00,
2013-07-07 17:17:00,74.5,66.8,29.60,NE,40,3.0,14.0,77,0.29,,---,0.29,VWS V14.01,2013-07-08 00:17:00,
2013-07-07 17:22:00,77.1,67.4,29.59,ENE,61,3.0,14.0,72,0.29,,---,0.29,VWS V14.01,2013-07-08 00:22:00,
2013-07-07 17:27:00,78.0,68.2,29.59,ENE,61,5.0,14.0,72,0.29,,---,0.29,VWS V14.01,2013-07-08 00:27:00,
2013-07-07 17:30:00,79.1,67.6,29.59,ENE,58,2.0,14.0,68,0.29,,---,0.29,VWS V14.01,2013-07-08 00:30:00,
2013-07-07 17:32:00,79.0,67.6,29.59,ENE,73,2.0,14.0,68,0.29,,---,0.29,VWS V14.01,2013-07-08 00:32:00,
2013-07-07 17:37:00,79.4,68.3,29.59,NE,39,1.0,5.0,69,0.29,,---,0.29,VWS V14.01,2013-07-08 00:37:00,
2013-07-07 17:42:00,79.8,67.4,29.58,NNE,13,1.0,5.0,66,0.29,,---,0.29,VWS V14.01,2013-07-08 00:42:00,
2013-07-07 17:47:00,80.9,66.7,29.58,NE,39,3.0,5.0,62,0.29,,---,0.29,VWS V14.01,2013-07-08 00:47:00,
2013-07-07 17:53:00,81.9,66.2,29.58,ENE,66,1.0,5.0,59,0.29,,---,0.29,VWS V14.01,2013-07-08 00:53:00,
2013-07-07 17:58:00,82.6,67.8,29.58,North,6,0.0,5.0,61,0.29,,---,0.29,VWS V14.01,2013-07-08 00:58:00,
2013-07-07 18:00:00,82.4,65.7,29.57,NNE,27,2.0,5.0,57,0.29,,---,0.29,VWS V15.00,2013-07-08 01:00:00,
2013-07-07 18:03:00,82.4,65.7,29.57,NNE,27,2.0,5.0,57,0.29,,---,0.29,VWS V14.01,2013-07-08 01:03:00,
2013-07-07 18:08:00,82.9,66.1,29.57,NNE,15,1.0,3.0,57,0.00,,---,0.29,VWS V14.01,2013-07-08 01:08:00,
2013-07-07 18:13:00,83.1,66.8,29.58,NNE,24,3.0,4.0,58,0.00,,---,0.29,VWS V14.01,2013-07-08 01:13:00,
2013-07-07 18:18:00,83.0,66.7,29.58,NNE,31,3.0,4.0,58,0.00,,---,0.29,VWS V14.01,2013-07-08 01:18:00,
2013-07-07 18:23:00,83.1,66.8,29.58,NNE,16,3.0,5.0,58,0.00,,---,0.29,VWS V14.01,2013-07-08 01:23:00,
2013-07-07 18:28:00,83.3,67.0,29.58,NE,47,2.0,5.0,58,0.00,,---,0.29,VWS V14.01,2013-07-08 01:28:00,
2013-07-07 18:30:00,83.6,65.7,29.59,NE,49,5.0,7.0,55,0.00,,---,0.29,VWS V14.01,2013-07-08 01:30:00,
2013-07-07 18:33:00,83.6,65.7,29.59,NE,52,5.0,6.0,55,0.00,,---,0.29,VWS V14.01,2013-07-08 01:33:00,
2013-07-07 18:38:00,84.0,65.1,29.59,NE,37,2.0,6.0,53,0.00,,---,0.29,VWS V14.01,2013-07-08 01:38:00,
2013-07-07 18:43:00,84.4,65.4,29.59,NE,36,1.0,6.0,53,0.00,,---,0.29,VWS V14.01,2013-07-08 01:43:00,
2013-07-07 18:49:00,84.4,65.9,29.60,NNE,19,0.0,6.0,54,0.00,,---,0.29,VWS V14.01,2013-07-08 01:49:00,
2013-07-07 18:54:00,84.1,66.2,29.60,NNE,20,0.0,6.0,55,0.00,,---,0.29,VWS V14.01,2013-07-08 01:54:00,
2013-07-07 18:59:00,84.0,66.1,29.61,NNE,12,0.0,6.0,55,0.00,,---,0.29,VWS V14.01,2013-07-08 01:59:00,
2013-07-07 19:00:00,83.9,66.5,29.61,NW,321,0.0,6.0,56,0.00,,---,0.29,VWS V14.01,2013-07-08 02:00:00,
2013-07-07 19:04:00,83.9,66.5,29.61,NW,321,0.0,0.0,56,0.00,,---,0.29,VWS V14.01,2013-07-08 02:04:00,
2013-07-07 19:09:00,83.9,66.5,29.61,NW,325,0.0,0.0,56,0.00,,---,0.29,VWS V14.01,2013-07-08 02:09:00,
2013-07-07 19:14:00,83.9,66.0,29.61,NW,324,0.0,0.0,55,0.00,,---,0.29,VWS V14.01,2013-07-08 02:14:00,
2013-07-07 19:19:00,84.1,66.2,29.61,North,9,1.0,2.0,55,0.00,,---,0.29,VWS V14.01,2013-07-08 02:19:00,
2013-07-07 19:24:00,84.2,66.3,29.61,NW,313,2.0,3.0,55,0.00,,---,0.29,VWS V14.01,2013-07-08 02:24:00,
2013-07-07 19:29:00,84.2,66.8,29.61,West,281,3.0,3.0,56,0.00,,---,0.29,VWS V14.01,2013-07-08 02:29:00,
2013-07-07 19:30:00,84.3,66.9,29.61,WNW,297,3.0,5.0,56,0.00,,---,0.29,VWS V14.01,2013-07-08 02:30:00,
2013-07-07 19:34:00,84.3,66.4,29.61,West,262,4.0,8.0,55,0.00,,---,0.29,VWS V14.01,2013-07-08 02:34:00,
2013-07-07 19:40:00,84.5,65.0,29.61,SW,226,3.0,8.0,52,0.00,,---,0.29,VWS V14.01,2013-07-08 02:40:00,
2013-07-07 19:45:00,84.9,64.8,29.61,WSW,245,4.0,8.0,51,0.00,,---,0.29,VWS V14.01,2013-07-08 02:45:00,
2013-07-07 19:50:00,85.4,63.5,29.61,WSW,252,3.0,8.0,48,0.00,,---,0.29,VWS V14.01,2013-07-08 02:50:00,
2013-07-07 19:55:00,85.5,63.6,29.61,West,262,0.0,8.0,48,0.00,,---,0.29,VWS V14.01,2013-07-08 02:55:00,
2013-07-07 20:00:00,85.4,63.5,29.61,WSW,257,1.0,8.0,48,0.00,,---,0.29,VWS V14.01,2013-07-08 03:00:00,
2013-07-07 20:05:00,85.6,63.7,29.61,WSW,246,1.0,2.0,48,0.00,,---,0.29,VWS V14.01,2013-07-08 03:05:00,
2013-07-07 20:10:00,85.7,62.6,29.61,SW,236,0.0,2.0,46,0.00,,---,0.29,VWS V14.01,2013-07-08 03:10:00,
2013-07-07 20:15:00,85.7,63.8,29.61,SW,236,0.0,2.0,48,0.00,,---,0.29,VWS V14.01,2013-07-08 03:15:00,
2013-07-07 20:20:00,85.4,63.5,29.61,West,270,0.0,2.0,48,0.00,,---,0.29,VWS V14.01,2013-07-08 03:20:00,
2013-07-07 20:25:00,85.4,62.3,29.61,WSW,249,0.0,2.0,46,0.00,,---,0.29,VWS V14.01,2013-07-08 03:25:00,
2013-07-07 20:30:00,85.6,62.5,29.61,WSW,245,0.0,2.0,46,0.00,,---,0.29,VWS V14.01,2013-07-08 03:30:00,
2013-07-07 20:35:00,85.7,63.2,29.61,South,191,0.0,0.0,47,0.00,,---,0.29,VWS V14.01,2013-07-08 03:35:00,
2013-07-07 20:41:00,85.6,63.1,29.62,South,191,0.0,0.0,47,0.00,,---,0.29,VWS V14.01,2013-07-08 03:41:00,
2013-07-07 20:46:00,85.1,65.0,29.62,SSE,155,0.0,0.0,51,0.00,,---,0.29,VWS V14.01,2013-07-08 03:46:00,
2013-07-07 20:51:00,84.8,65.2,29.62,SSE,155,0.0,0.0,52,0.00,,---,0.29,VWS V14.01,2013-07-08 03:51:00,
2013-07-07 20:56:00,84.4,65.4,29.62,SSE,155,0.0,0.0,53,0.00,,---,0.29,VWS V14.01,2013-07-08 03:56:00,
2013-07-07 21:00:00,84.1,65.7,29.63,NNE,18,0.0,0.0,54,0.00,,---,0.29,VWS V14.01,2013-07-08 04:00:00,
2013-07-07 21:01:00,84.2,65.2,29.63,SSE,155,0.0,0.0,53,0.00,,---,0.29,VWS V14.01,2013-07-08 04:01:00,
2013-07-07 21:02:00,84.1,65.7,29.63,NNE,18,0.0,0.0,54,0.00,,---,0.29,VWS V14.01,2013-07-08 04:02:00,
2013-07-07 21:07:00,84.0,65.6,29.63,NNE,14,0.0,0.0,54,0.00,,---,0.29,VWS V14.01,2013-07-08 04:07:00,
2013-07-07 21:12:00,84.3,64.8,29.64,NE,40,0.0,0.0,52,0.00,,---,0.29,VWS V14.01,2013-07-08 04:12:00,
2013-07-07 21:17:00,84.4,64.9,29.64,NNE,15,2.0,3.0,52,0.00,,---,0.29,VWS V14.01,2013-07-08 04:17:00,
2013-07-07 21:23:00,84.4,65.9,29.64,NE,40,2.0,5.0,54,0.00,,---,0.29,VWS V14.01,2013-07-08 04:23:00,
2013-07-07 21:28:00,84.1,65.7,29.64,North,6,1.0,5.0,54,0.00,,---,0.29,VWS V14.01,2013-07-08 04:28:00,
2013-07-07 21:30:00,83.9,64.9,29.64,North,6,0.0,5.0,53,0.00,,---,0.29,VWS V14.01,2013-07-08 04:30:00,
2013-07-07 21:33:00,83.9,64.9,29.64,North,6,0.0,5.0,53,0.00,,---,0.29,VWS V14.01,2013-07-08 04:33:00,
2013-07-07 21:38:00,84.2,65.2,29.64,North,11,0.0,0.0,53,0.00,,---,0.29,VWS V14.01,2013-07-08 04:38:00,
2013-07-07 21:43:00,84.2,66.3,29.64,North,11,0.0,0.0,55,0.00,,---,0.29,VWS V14.01,2013-07-08 04:43:00,
2013-07-07 21:48:00,83.7,66.3,29.64,NE,43,4.0,5.0,56,0.00,,---,0.29,VWS V14.01,2013-07-08 04:48:00,
2013-07-07 21:53:00,83.2,66.4,29.65,ENE,73,0.0,5.0,57,0.00,,---,0.29,VWS V14.01,2013-07-08 04:53:00,
2013-07-07 21:58:00,83.0,66.7,29.65,NE,40,2.0,5.0,58,0.00,,---,0.29,VWS V14.01,2013-07-08 04:58:00,
2013-07-07 22:00:00,82.9,66.1,29.65,NNE,29,4.0,5.0,57,0.00,,---,0.29,VWS V14.01,2013-07-08 05:00:00,
2013-07-07 22:03:00,82.9,66.1,29.65,NNE,18,6.0,7.0,57,0.00,,---,0.29,VWS V14.01,2013-07-08 05:03:00,
2013-07-07 22:08:00,83.1,65.3,29.65,NE,34,2.0,7.0,55,0.00,,---,0.29,VWS V14.01,2013-07-08 05:08:00,
2013-07-07 22:13:00,83.5,64.0,29.65,North,7,3.0,7.0,52,0.00,,---,0.29,VWS V14.01,2013-07-08 05:13:00,
2013-07-07 22:18:00,83.9,63.3,29.65,North,349,2.0,7.0,50,0.00,,---,0.29,VWS V14.01,2013-07-08 05:18:00,
2013-07-07 22:23:00,84.1,63.5,29.65,NNW,345,0.0,7.0,50,0.00,,---,0.29,VWS V14.01,2013-07-08 05:23:00,
2013-07-07 22:28:00,84.0,62.8,29.65,NNW,345,0.0,7.0,49,0.00,,---,0.29,VWS V14.01,2013-07-08 05:28:00,
2013-07-07 22:30:00,84.0,63.4,29.65,WNW,300,0.0,7.0,50,0.00,,---,0.29,VWS V14.01,2013-07-08 05:30:00,
2013-07-07 22:33:00,84.0,63.4,29.65,WNW,300,0.0,1.0,50,0.00,,---,0.29,VWS V14.01,2013-07-08 05:33:00,
2013-07-07 22:39:00,84.0,63.4,29.65,West,274,1.0,2.0,50,0.00,,---,0.29,VWS V14.01,2013-07-08 05:39:00,
2013-07-07 22:44:00,84.1,63.5,29.65,NE,56,0.0,3.0,50,0.00,,---,0.29,VWS V14.01,2013-07-08 05:44:00,
2013-07-07 22:49:00,83.9,64.4,29.65,SW,233,2.0,3.0,52,0.00,,---,0.29,VWS V14.01,2013-07-08 05:49:00,
2013-07-07 22:54:00,83.5,63.5,29.65,WSW,256,0.0,3.0,51,0.00,,---,0.29,VWS V14.01,2013-07-08 05:54:00,
2013-07-07 22:59:00,83.8,62.0,29.66,NNE,29,0.0,3.0,48,0.00,,---,0.29,VWS V14.01,2013-07-08 05:59:00,
2013-07-07 23:00:00,84.2,61.8,29.66,NNW,332,1.0,3.0,47,0.00,,---,0.29,VWS V14.01,2013-07-08 06:00:00,
2013-07-07 23:04:00,84.3,61.3,29.66,NW,316,0.0,3.0,46,0.00,,---,0.29,VWS V14.01,2013-07-08 06:04:00,
2013-07-07 23:09:00,84.6,61.6,29.66,WNW,288,0.0,3.0,46,0.00,,---,0.29,VWS V14.01,2013-07-08 06:09:00,
2013-07-07 23:14:00,84.7,61.0,29.66,NW,322,1.0,3.0,45,0.00,,---,0.29,VWS V14.01,2013-07-08 06:14:00,
2013-07-07 23:19:00,84.7,60.4,29.66,NNW,345,1.0,3.0,44,0.00,,---,0.29,VWS V14.01,2013-07-08 06:19:00,
2013-07-07 23:25:00,84.7,59.8,29.66,NW,309,0.0,3.0,43,0.00,,---,0.29,VWS V14.01,2013-07-08 06:25:00,
2013-07-07 23:30:00,84.8,59.2,29.66,NNW,330,0.0,3.0,42,0.00,,---,0.29,VWS V14.01,2013-07-08 06:30:00,
2013-07-07 23:35:00,84.8,58.5,29.66,North,6,1.0,2.0,41,0.00,,---,0.29,VWS V14.01,2013-07-08 06:35:00,
2013-07-07 23:40:00,85.1,58.1,29.66,North,4,3.0,4.0,40,0.00,,---,0.29,VWS V14.01,2013-07-08 06:40:00,
2013-07-07 23:45:00,84.9,61.2,29.66,NE,35,2.0,4.0,45,0.00,,---,0.29,VWS V14.01,2013-07-08 06:45:00,
2013-07-07 23:50:00,84.4,60.8,29.66,NNE,27,0.0,4.0,45,0.00,,---,0.29,VWS V14.01,2013-07-08 06:50:00,
2013-07-07 23:55:00,84.0,62.2,29.66,NNE,29,0.0,4.0,48,0.00,,---,0.29,VWS V14.01,2013-07-08 06:55:00,